sensor_id;sensor_type;location;lat;lon;timestamp;temperature;humidity
69436;SHT31;56625;54.322;18.582;2024-02-28T00:00:44;4.49;92.70
69436;SHT31;56625;54.322;18.582;2024-02-28T00:03:33;4.50;92.70
69436;SHT31;56625;54.322;18.582;2024-02-28T00:06:01;4.52;92.70
69436;SHT31;56625;54.322;18.582;2024-02-28T00:08:29;4.52;92.59
69436;SHT31;56625;54.322;18.582;2024-02-28T00:10:57;4.47;92.47
69436;SHT31;56625;54.322;18.582;2024-02-28T00:13:25;4.47;92.50
69436;SHT31;56625;54.322;18.582;2024-02-28T00:15:53;4.49;92.55
69436;SHT31;56625;54.322;18.582;2024-02-28T00:18:21;4.50;92.57
69436;SHT31;56625;54.322;18.582;2024-02-28T00:20:49;4.51;92.46
69436;SHT31;56625;54.322;18.582;2024-02-28T00:23:18;4.50;92.40
69436;SHT31;56625;54.322;18.582;2024-02-28T00:25:47;4.50;92.35
69436;SHT31;56625;54.322;18.582;2024-02-28T00:28:15;4.49;92.30
69436;SHT31;56625;54.322;18.582;2024-02-28T00:30:43;4.49;92.24
69436;SHT31;56625;54.322;18.582;2024-02-28T00:33:11;4.50;92.21
69436;SHT31;56625;54.322;18.582;2024-02-28T00:35:39;4.50;92.19
69436;SHT31;56625;54.322;18.582;2024-02-28T00:38:09;4.50;92.14
69436;SHT31;56625;54.322;18.582;2024-02-28T00:40:37;4.49;92.03
69436;SHT31;56625;54.322;18.582;2024-02-28T00:43:06;4.51;92.08
69436;SHT31;56625;54.322;18.582;2024-02-28T00:45:34;4.53;92.10
69436;SHT31;56625;54.322;18.582;2024-02-28T00:48:02;4.55;92.04
69436;SHT31;56625;54.322;18.582;2024-02-28T00:50:30;4.55;91.98
69436;SHT31;56625;54.322;18.582;2024-02-28T00:52:58;4.58;91.98
69436;SHT31;56625;54.322;18.582;2024-02-28T00:55:26;4.61;92.00
69436;SHT31;56625;54.322;18.582;2024-02-28T00:57:54;4.62;91.92
69436;SHT31;56625;54.322;18.582;2024-02-28T01:00:22;4.63;91.88
69436;SHT31;56625;54.322;18.582;2024-02-28T01:02:51;4.59;91.61
69436;SHT31;56625;54.322;18.582;2024-02-28T01:05:19;4.52;91.48
69436;SHT31;56625;54.322;18.582;2024-02-28T01:07:47;4.47;91.39
69436;SHT31;56625;54.322;18.582;2024-02-28T01:10:15;4.45;91.46
69436;SHT31;56625;54.322;18.582;2024-02-28T01:12:43;4.44;91.50
69436;SHT31;56625;54.322;18.582;2024-02-28T01:15:12;4.43;91.50
69436;SHT31;56625;54.322;18.582;2024-02-28T01:17:40;4.42;91.50
69436;SHT31;56625;54.322;18.582;2024-02-28T01:20:09;4.40;91.43
69436;SHT31;56625;54.322;18.582;2024-02-28T01:22:38;4.37;91.44
69436;SHT31;56625;54.322;18.582;2024-02-28T01:25:06;4.36;91.41
69436;SHT31;56625;54.322;18.582;2024-02-28T01:27:34;4.34;91.49
69436;SHT31;56625;54.322;18.582;2024-02-28T01:30:03;4.34;91.40
69436;SHT31;56625;54.322;18.582;2024-02-28T01:32:32;4.32;91.41
69436;SHT31;56625;54.322;18.582;2024-02-28T01:35:01;4.27;91.35
69436;SHT31;56625;54.322;18.582;2024-02-28T01:37:31;4.28;91.38
69436;SHT31;56625;54.322;18.582;2024-02-28T01:39:59;4.25;91.33
69436;SHT31;56625;54.322;18.582;2024-02-28T01:42:27;4.23;91.32
69436;SHT31;56625;54.322;18.582;2024-02-28T01:44:55;4.22;91.31
69436;SHT31;56625;54.322;18.582;2024-02-28T01:47:23;4.20;91.33
69436;SHT31;56625;54.322;18.582;2024-02-28T01:49:52;4.18;91.38
69436;SHT31;56625;54.322;18.582;2024-02-28T01:52:22;4.18;91.36
69436;SHT31;56625;54.322;18.582;2024-02-28T01:54:50;4.15;91.32
69436;SHT31;56625;54.322;18.582;2024-02-28T01:57:18;4.15;91.36
69436;SHT31;56625;54.322;18.582;2024-02-28T01:59:46;4.15;91.37
69436;SHT31;56625;54.322;18.582;2024-02-28T02:02:15;4.15;91.39
69436;SHT31;56625;54.322;18.582;2024-02-28T02:04:43;4.14;91.39
69436;SHT31;56625;54.322;18.582;2024-02-28T02:07:11;4.16;91.40
69436;SHT31;56625;54.322;18.582;2024-02-28T02:09:39;4.18;91.42
69436;SHT31;56625;54.322;18.582;2024-02-28T02:12:08;4.17;91.35
69436;SHT31;56625;54.322;18.582;2024-02-28T02:14:36;4.15;91.30
69436;SHT31;56625;54.322;18.582;2024-02-28T02:17:04;4.13;91.30
69436;SHT31;56625;54.322;18.582;2024-02-28T02:19:32;4.13;91.33
69436;SHT31;56625;54.322;18.582;2024-02-28T02:22:00;4.12;91.32
69436;SHT31;56625;54.322;18.582;2024-02-28T02:24:33;4.13;91.40
69436;SHT31;56625;54.322;18.582;2024-02-28T02:27:02;4.16;91.41
69436;SHT31;56625;54.322;18.582;2024-02-28T02:29:32;4.18;91.43
69436;SHT31;56625;54.322;18.582;2024-02-28T02:32:00;4.20;91.43
69436;SHT31;56625;54.322;18.582;2024-02-28T02:34:28;4.22;91.40
69436;SHT31;56625;54.322;18.582;2024-02-28T02:36:56;4.23;91.42
69436;SHT31;56625;54.322;18.582;2024-02-28T02:39:25;4.20;91.32
69436;SHT31;56625;54.322;18.582;2024-02-28T02:41:53;4.20;91.30
69436;SHT31;56625;54.322;18.582;2024-02-28T02:44:21;4.18;91.30
69436;SHT31;56625;54.322;18.582;2024-02-28T02:46:49;4.18;91.35
69436;SHT31;56625;54.322;18.582;2024-02-28T02:49:17;4.18;91.35
69436;SHT31;56625;54.322;18.582;2024-02-28T02:51:46;4.19;91.40
69436;SHT31;56625;54.322;18.582;2024-02-28T02:54:14;4.21;91.43
69436;SHT31;56625;54.322;18.582;2024-02-28T02:56:42;4.22;91.41
69436;SHT31;56625;54.322;18.582;2024-02-28T02:59:11;4.24;91.50
69436;SHT31;56625;54.322;18.582;2024-02-28T03:01:42;4.30;91.57
69436;SHT31;56625;54.322;18.582;2024-02-28T03:04:10;4.35;91.61
69436;SHT31;56625;54.322;18.582;2024-02-28T03:06:38;4.36;91.52
69436;SHT31;56625;54.322;18.582;2024-02-28T03:09:06;4.38;91.50
69436;SHT31;56625;54.322;18.582;2024-02-28T03:11:35;4.42;91.54
69436;SHT31;56625;54.322;18.582;2024-02-28T03:14:03;4.43;91.39
69436;SHT31;56625;54.322;18.582;2024-02-28T03:16:31;4.45;91.46
69436;SHT31;56625;54.322;18.582;2024-02-28T03:18:59;4.47;91.36
69436;SHT31;56625;54.322;18.582;2024-02-28T03:21:27;4.43;91.10
69436;SHT31;56625;54.322;18.582;2024-02-28T03:23:55;4.44;91.19
69436;SHT31;56625;54.322;18.582;2024-02-28T03:26:23;4.44;91.20
69436;SHT31;56625;54.322;18.582;2024-02-28T03:28:52;4.47;91.29
69436;SHT31;56625;54.322;18.582;2024-02-28T03:31:20;4.49;91.23
69436;SHT31;56625;54.322;18.582;2024-02-28T03:33:48;4.50;91.19
69436;SHT31;56625;54.322;18.582;2024-02-28T03:36:16;4.51;91.12
69436;SHT31;56625;54.322;18.582;2024-02-28T03:38:44;4.51;91.11
69436;SHT31;56625;54.322;18.582;2024-02-28T03:41:12;4.52;91.10
69436;SHT31;56625;54.322;18.582;2024-02-28T03:43:40;4.54;91.10
69436;SHT31;56625;54.322;18.582;2024-02-28T03:46:08;4.55;91.05
69436;SHT31;56625;54.322;18.582;2024-02-28T03:48:37;4.53;90.96
69436;SHT31;56625;54.322;18.582;2024-02-28T03:51:05;4.51;90.86
69436;SHT31;56625;54.322;18.582;2024-02-28T03:53:33;4.51;90.89
69436;SHT31;56625;54.322;18.582;2024-02-28T03:56:01;4.52;90.93
69436;SHT31;56625;54.322;18.582;2024-02-28T03:58:30;4.51;90.85
69436;SHT31;56625;54.322;18.582;2024-02-28T04:00:58;4.52;90.81
69436;SHT31;56625;54.322;18.582;2024-02-28T04:03:26;4.52;90.89
69436;SHT31;56625;54.322;18.582;2024-02-28T04:05:55;4.53;90.82
69436;SHT31;56625;54.322;18.582;2024-02-28T04:08:23;4.53;90.84
69436;SHT31;56625;54.322;18.582;2024-02-28T04:10:51;4.56;90.90
69436;SHT31;56625;54.322;18.582;2024-02-28T04:13:19;4.57;90.90
69436;SHT31;56625;54.322;18.582;2024-02-28T04:15:47;4.57;90.80
69436;SHT31;56625;54.322;18.582;2024-02-28T04:18:15;4.58;90.80
69436;SHT31;56625;54.322;18.582;2024-02-28T04:20:43;4.56;90.70
69436;SHT31;56625;54.322;18.582;2024-02-28T04:23:11;4.55;90.68
69436;SHT31;56625;54.322;18.582;2024-02-28T04:25:39;4.54;90.60
69436;SHT31;56625;54.322;18.582;2024-02-28T04:28:08;4.53;90.67
69436;SHT31;56625;54.322;18.582;2024-02-28T04:30:36;4.50;90.60
69436;SHT31;56625;54.322;18.582;2024-02-28T04:33:04;4.49;90.61
69436;SHT31;56625;54.322;18.582;2024-02-28T04:35:32;4.47;90.61
69436;SHT31;56625;54.322;18.582;2024-02-28T04:38:00;4.47;90.66
69436;SHT31;56625;54.322;18.582;2024-02-28T04:40:29;4.47;90.67
69436;SHT31;56625;54.322;18.582;2024-02-28T04:42:57;4.46;90.66
69436;SHT31;56625;54.322;18.582;2024-02-28T04:45:25;4.45;90.66
69436;SHT31;56625;54.322;18.582;2024-02-28T04:47:53;4.44;90.64
69436;SHT31;56625;54.322;18.582;2024-02-28T04:50:22;4.39;90.59
69436;SHT31;56625;54.322;18.582;2024-02-28T04:52:51;4.34;90.66
69436;SHT31;56625;54.322;18.582;2024-02-28T04:55:19;4.30;90.78
69436;SHT31;56625;54.322;18.582;2024-02-28T04:57:47;4.24;90.83
69436;SHT31;56625;54.322;18.582;2024-02-28T05:00:15;4.23;90.92
69436;SHT31;56625;54.322;18.582;2024-02-28T05:02:44;4.23;91.03
69436;SHT31;56625;54.322;18.582;2024-02-28T05:05:12;4.23;91.10
69436;SHT31;56625;54.322;18.582;2024-02-28T05:07:40;4.24;91.14
69436;SHT31;56625;54.322;18.582;2024-02-28T05:10:08;4.23;91.21
69436;SHT31;56625;54.322;18.582;2024-02-28T05:12:37;4.22;91.28
69436;SHT31;56625;54.322;18.582;2024-02-28T05:15:06;4.21;91.30
69436;SHT31;56625;54.322;18.582;2024-02-28T05:17:34;4.20;91.37
69436;SHT31;56625;54.322;18.582;2024-02-28T05:20:02;4.19;91.43
69436;SHT31;56625;54.322;18.582;2024-02-28T05:22:31;4.18;91.49
69436;SHT31;56625;54.322;18.582;2024-02-28T05:24:59;4.16;91.52
69436;SHT31;56625;54.322;18.582;2024-02-28T05:27:27;4.16;91.54
69436;SHT31;56625;54.322;18.582;2024-02-28T05:29:56;4.14;91.58
69436;SHT31;56625;54.322;18.582;2024-02-28T05:32:25;4.14;91.66
69436;SHT31;56625;54.322;18.582;2024-02-28T05:34:53;4.16;91.70
69436;SHT31;56625;54.322;18.582;2024-02-28T05:37:21;4.16;91.75
69436;SHT31;56625;54.322;18.582;2024-02-28T05:39:49;4.18;91.71
69436;SHT31;56625;54.322;18.582;2024-02-28T05:42:18;4.19;91.72
69436;SHT31;56625;54.322;18.582;2024-02-28T05:44:50;4.20;91.74
69436;SHT31;56625;54.322;18.582;2024-02-28T05:47:18;4.20;91.74
69436;SHT31;56625;54.322;18.582;2024-02-28T05:49:50;4.19;91.77
69436;SHT31;56625;54.322;18.582;2024-02-28T05:52:18;4.19;91.81
69436;SHT31;56625;54.322;18.582;2024-02-28T05:54:47;4.20;91.84
69436;SHT31;56625;54.322;18.582;2024-02-28T05:57:16;4.18;91.83
69436;SHT31;56625;54.322;18.582;2024-02-28T05:59:44;4.18;91.90
69436;SHT31;56625;54.322;18.582;2024-02-28T06:02:12;4.20;91.94
69436;SHT31;56625;54.322;18.582;2024-02-28T06:04:40;4.21;91.94
69436;SHT31;56625;54.322;18.582;2024-02-28T06:07:08;4.22;91.95
69436;SHT31;56625;54.322;18.582;2024-02-28T06:09:36;4.24;92.00
69436;SHT31;56625;54.322;18.582;2024-02-28T06:12:06;4.24;91.98
69436;SHT31;56625;54.322;18.582;2024-02-28T06:14:34;4.23;91.98
69436;SHT31;56625;54.322;18.582;2024-02-28T06:17:02;4.25;91.98
69436;SHT31;56625;54.322;18.582;2024-02-28T06:19:30;4.28;92.02
69436;SHT31;56625;54.322;18.582;2024-02-28T06:21:58;4.30;92.02
69436;SHT31;56625;54.322;18.582;2024-02-28T06:24:26;4.30;92.00
69436;SHT31;56625;54.322;18.582;2024-02-28T06:26:54;4.32;92.00
69436;SHT31;56625;54.322;18.582;2024-02-28T06:29:23;4.30;91.98
69436;SHT31;56625;54.322;18.582;2024-02-28T06:31:51;4.30;91.96
69436;SHT31;56625;54.322;18.582;2024-02-28T06:34:19;4.30;91.94
69436;SHT31;56625;54.322;18.582;2024-02-28T06:36:48;4.30;92.00
69436;SHT31;56625;54.322;18.582;2024-02-28T06:39:16;4.30;91.98
69436;SHT31;56625;54.322;18.582;2024-02-28T06:41:44;4.32;91.99
69436;SHT31;56625;54.322;18.582;2024-02-28T06:44:12;4.33;92.00
69436;SHT31;56625;54.322;18.582;2024-02-28T06:46:40;4.36;92.00
69436;SHT31;56625;54.322;18.582;2024-02-28T06:49:08;4.40;92.01
69436;SHT31;56625;54.322;18.582;2024-02-28T06:54:30;4.44;91.92
69436;SHT31;56625;54.322;18.582;2024-02-28T06:56:59;4.45;91.84
69436;SHT31;56625;54.322;18.582;2024-02-28T06:59:27;4.49;91.83
69436;SHT31;56625;54.322;18.582;2024-02-28T07:01:56;4.52;91.80
69436;SHT31;56625;54.322;18.582;2024-02-28T07:04:24;4.56;91.85
69436;SHT31;56625;54.322;18.582;2024-02-28T07:06:52;4.56;91.64
69436;SHT31;56625;54.322;18.582;2024-02-28T07:09:20;4.54;91.51
69436;SHT31;56625;54.322;18.582;2024-02-28T07:11:48;4.54;91.47
69436;SHT31;56625;54.322;18.582;2024-02-28T07:14:16;4.53;91.47
69436;SHT31;56625;54.322;18.582;2024-02-28T07:16:46;4.53;91.48
69436;SHT31;56625;54.322;18.582;2024-02-28T07:19:14;4.55;91.50
69436;SHT31;56625;54.322;18.582;2024-02-28T07:21:42;4.60;91.58
69436;SHT31;56625;54.322;18.582;2024-02-28T07:24:10;4.63;91.57
69436;SHT31;56625;54.322;18.582;2024-02-28T07:26:38;4.67;91.58
69436;SHT31;56625;54.322;18.582;2024-02-28T07:29:08;4.71;91.49
69436;SHT31;56625;54.322;18.582;2024-02-28T07:31:36;4.74;91.43
69436;SHT31;56625;54.322;18.582;2024-02-28T07:34:04;4.75;91.32
69436;SHT31;56625;54.322;18.582;2024-02-28T07:36:33;4.77;91.29
69436;SHT31;56625;54.322;18.582;2024-02-28T07:39:02;4.81;91.30
69436;SHT31;56625;54.322;18.582;2024-02-28T07:41:31;4.84;91.18
69436;SHT31;56625;54.322;18.582;2024-02-28T07:43:59;4.82;90.88
69436;SHT31;56625;54.322;18.582;2024-02-28T07:46:28;4.81;90.78
69436;SHT31;56625;54.322;18.582;2024-02-28T07:48:57;4.81;90.77
69436;SHT31;56625;54.322;18.582;2024-02-28T07:51:25;4.78;90.58
69436;SHT31;56625;54.322;18.582;2024-02-28T07:53:53;4.78;90.68
69436;SHT31;56625;54.322;18.582;2024-02-28T07:56:21;4.80;90.71
69436;SHT31;56625;54.322;18.582;2024-02-28T07:58:49;4.80;90.63
69436;SHT31;56625;54.322;18.582;2024-02-28T08:01:17;4.78;90.59
69436;SHT31;56625;54.322;18.582;2024-02-28T08:03:46;4.80;90.61
69436;SHT31;56625;54.322;18.582;2024-02-28T08:06:14;4.82;90.68
69436;SHT31;56625;54.322;18.582;2024-02-28T08:08:44;4.84;90.65
69436;SHT31;56625;54.322;18.582;2024-02-28T08:11:14;4.88;90.70
69436;SHT31;56625;54.322;18.582;2024-02-28T08:13:42;4.90;90.58
69436;SHT31;56625;54.322;18.582;2024-02-28T08:16:11;4.91;90.52
69436;SHT31;56625;54.322;18.582;2024-02-28T08:18:41;4.93;90.48
69436;SHT31;56625;54.322;18.582;2024-02-28T08:21:09;4.92;90.40
69436;SHT31;56625;54.322;18.582;2024-02-28T08:23:37;4.92;90.36
69436;SHT31;56625;54.322;18.582;2024-02-28T08:26:06;4.93;90.31
69436;SHT31;56625;54.322;18.582;2024-02-28T08:28:34;4.93;90.36
69436;SHT31;56625;54.322;18.582;2024-02-28T08:31:02;4.94;90.40
69436;SHT31;56625;54.322;18.582;2024-02-28T08:33:31;4.97;90.45
69436;SHT31;56625;54.322;18.582;2024-02-28T08:36:00;5.02;90.48
69436;SHT31;56625;54.322;18.582;2024-02-28T08:38:28;5.04;90.40
69436;SHT31;56625;54.322;18.582;2024-02-28T08:40:56;5.06;90.40
69436;SHT31;56625;54.322;18.582;2024-02-28T08:43:24;5.08;90.35
69436;SHT31;56625;54.322;18.582;2024-02-28T08:45:52;5.11;90.39
69436;SHT31;56625;54.322;18.582;2024-02-28T08:48:21;5.14;90.38
69436;SHT31;56625;54.322;18.582;2024-02-28T08:50:50;5.18;90.30
69436;SHT31;56625;54.322;18.582;2024-02-28T08:53:18;5.20;90.27
69436;SHT31;56625;54.322;18.582;2024-02-28T08:55:46;5.23;90.27
69436;SHT31;56625;54.322;18.582;2024-02-28T08:58:15;5.29;90.28
69436;SHT31;56625;54.322;18.582;2024-02-28T09:00:43;5.31;90.10
69436;SHT31;56625;54.322;18.582;2024-02-28T09:03:11;5.28;89.88
69436;SHT31;56625;54.322;18.582;2024-02-28T09:05:39;5.27;89.92
69436;SHT31;56625;54.322;18.582;2024-02-28T09:08:07;5.27;89.97
69436;SHT31;56625;54.322;18.582;2024-02-28T09:10:39;5.31;90.00
69436;SHT31;56625;54.322;18.582;2024-02-28T09:13:07;5.30;89.88
69436;SHT31;56625;54.322;18.582;2024-02-28T09:15:35;5.28;89.72
69436;SHT31;56625;54.322;18.582;2024-02-28T09:18:04;5.24;89.70
69436;SHT31;56625;54.322;18.582;2024-02-28T09:20:32;5.20;89.70
69436;SHT31;56625;54.322;18.582;2024-02-28T09:23:00;5.17;89.76
69436;SHT31;56625;54.322;18.582;2024-02-28T09:25:29;5.18;89.88
69436;SHT31;56625;54.322;18.582;2024-02-28T09:27:58;5.17;89.88
69436;SHT31;56625;54.322;18.582;2024-02-28T09:30:28;5.21;90.05
69436;SHT31;56625;54.322;18.582;2024-02-28T09:33:09;5.27;90.16
69436;SHT31;56625;54.322;18.582;2024-02-28T09:35:37;5.32;90.13
69436;SHT31;56625;54.322;18.582;2024-02-28T09:38:05;5.38;90.13
69436;SHT31;56625;54.322;18.582;2024-02-28T09:40:33;5.46;90.21
69436;SHT31;56625;54.322;18.582;2024-02-28T09:43:02;5.53;90.29
69436;SHT31;56625;54.322;18.582;2024-02-28T09:45:31;5.59;90.14
69436;SHT31;56625;54.322;18.582;2024-02-28T09:48:00;5.61;90.02
69436;SHT31;56625;54.322;18.582;2024-02-28T09:50:29;5.65;89.93
69436;SHT31;56625;54.322;18.582;2024-02-28T09:52:57;5.66;89.83
69436;SHT31;56625;54.322;18.582;2024-02-28T09:55:37;5.68;89.72
69436;SHT31;56625;54.322;18.582;2024-02-28T09:58:05;6.24;92.36
69436;SHT31;56625;54.322;18.582;2024-02-28T10:00:36;6.54;91.82
69436;SHT31;56625;54.322;18.582;2024-02-28T10:03:06;6.43;89.60
69436;SHT31;56625;54.322;18.582;2024-02-28T10:05:37;6.31;88.82
69436;SHT31;56625;54.322;18.582;2024-02-28T10:08:06;6.20;88.49
69436;SHT31;56625;54.322;18.582;2024-02-28T10:10:37;6.15;88.78
69436;SHT31;56625;54.322;18.582;2024-02-28T10:13:08;6.14;88.93
69436;SHT31;56625;54.322;18.582;2024-02-28T10:15:36;6.10;88.79
69436;SHT31;56625;54.322;18.582;2024-02-28T10:18:04;6.10;88.81
69436;SHT31;56625;54.322;18.582;2024-02-28T10:20:33;6.10;88.80
69436;SHT31;56625;54.322;18.582;2024-02-28T10:23:05;6.06;88.64
69436;SHT31;56625;54.322;18.582;2024-02-28T10:25:43;6.04;88.57
69436;SHT31;56625;54.322;18.582;2024-02-28T10:28:24;6.03;88.60
69436;SHT31;56625;54.322;18.582;2024-02-28T10:30:53;6.01;88.60
69436;SHT31;56625;54.322;18.582;2024-02-28T10:33:25;5.98;88.51
69436;SHT31;56625;54.322;18.582;2024-02-28T10:36:02;5.97;88.61
69436;SHT31;56625;54.322;18.582;2024-02-28T10:38:32;5.97;88.53
69436;SHT31;56625;54.322;18.582;2024-02-28T10:41:01;5.92;88.39
69436;SHT31;56625;54.322;18.582;2024-02-28T10:43:30;5.84;88.37
69436;SHT31;56625;54.322;18.582;2024-02-28T10:45:59;5.82;88.58
69436;SHT31;56625;54.322;18.582;2024-02-28T10:48:31;5.84;88.89
69436;SHT31;56625;54.322;18.582;2024-02-28T10:51:00;5.91;89.12
69436;SHT31;56625;54.322;18.582;2024-02-28T10:53:36;5.97;89.07
69436;SHT31;56625;54.322;18.582;2024-02-28T10:56:10;5.98;88.95
69436;SHT31;56625;54.322;18.582;2024-02-28T10:58:43;6.00;88.86
69436;SHT31;56625;54.322;18.582;2024-02-28T11:01:20;5.99;88.64
69436;SHT31;56625;54.322;18.582;2024-02-28T11:03:50;5.93;88.42
69436;SHT31;56625;54.322;18.582;2024-02-28T11:06:20;5.91;88.46
69436;SHT31;56625;54.322;18.582;2024-02-28T11:08:51;5.91;88.58
69436;SHT31;56625;54.322;18.582;2024-02-28T11:11:24;5.94;88.77
69436;SHT31;56625;54.322;18.582;2024-02-28T11:13:56;5.98;88.80
69436;SHT31;56625;54.322;18.582;2024-02-28T11:16:31;6.02;88.83
69436;SHT31;56625;54.322;18.582;2024-02-28T11:19:01;6.04;88.66
69436;SHT31;56625;54.322;18.582;2024-02-28T11:21:34;6.08;88.72
69436;SHT31;56625;54.322;18.582;2024-02-28T11:24:03;6.17;88.73
69436;SHT31;56625;54.322;18.582;2024-02-28T11:26:33;6.22;88.69
69436;SHT31;56625;54.322;18.582;2024-02-28T11:29:01;6.27;88.70
69436;SHT31;56625;54.322;18.582;2024-02-28T11:31:29;6.33;88.75
69436;SHT31;56625;54.322;18.582;2024-02-28T11:33:57;6.39;88.70
69436;SHT31;56625;54.322;18.582;2024-02-28T11:36:25;6.43;88.42
69436;SHT31;56625;54.322;18.582;2024-02-28T11:38:53;6.40;88.01
69436;SHT31;56625;54.322;18.582;2024-02-28T11:41:26;6.38;88.07
69436;SHT31;56625;54.322;18.582;2024-02-28T11:44:01;6.40;88.19
69436;SHT31;56625;54.322;18.582;2024-02-28T11:46:29;6.44;88.31
69436;SHT31;56625;54.322;18.582;2024-02-28T11:48:57;6.47;88.33
69436;SHT31;56625;54.322;18.582;2024-02-28T11:51:25;6.49;88.19
69436;SHT31;56625;54.322;18.582;2024-02-28T11:53:53;6.47;88.07
69436;SHT31;56625;54.322;18.582;2024-02-28T11:56:21;6.44;87.99
69436;SHT31;56625;54.322;18.582;2024-02-28T11:58:50;6.41;88.01
69436;SHT31;56625;54.322;18.582;2024-02-28T12:01:20;6.41;88.03
69436;SHT31;56625;54.322;18.582;2024-02-28T12:04:04;6.38;88.05
69436;SHT31;56625;54.322;18.582;2024-02-28T12:06:34;6.39;88.14
69436;SHT31;56625;54.322;18.582;2024-02-28T12:09:07;6.39;88.20
69436;SHT31;56625;54.322;18.582;2024-02-28T12:11:37;6.46;88.34
69436;SHT31;56625;54.322;18.582;2024-02-28T12:14:06;6.49;88.30
69436;SHT31;56625;54.322;18.582;2024-02-28T12:16:39;6.53;88.30
69436;SHT31;56625;54.322;18.582;2024-02-28T12:19:11;6.54;88.18
69436;SHT31;56625;54.322;18.582;2024-02-28T12:21:41;6.49;87.93
69436;SHT31;56625;54.322;18.582;2024-02-28T12:24:10;6.45;87.91
69436;SHT31;56625;54.322;18.582;2024-02-28T12:26:39;6.36;87.78
69436;SHT31;56625;54.322;18.582;2024-02-28T12:29:08;6.25;87.79
69436;SHT31;56625;54.322;18.582;2024-02-28T12:31:38;6.17;88.00
69436;SHT31;56625;54.322;18.582;2024-02-28T12:34:07;6.16;88.26
69436;SHT31;56625;54.322;18.582;2024-02-28T12:36:35;6.16;88.31
69436;SHT31;56625;54.322;18.582;2024-02-28T12:39:03;6.18;88.41
69436;SHT31;56625;54.322;18.582;2024-02-28T12:41:34;6.20;88.37
69436;SHT31;56625;54.322;18.582;2024-02-28T12:44:07;6.20;88.30
69436;SHT31;56625;54.322;18.582;2024-02-28T12:46:36;6.24;88.31
69436;SHT31;56625;54.322;18.582;2024-02-28T12:49:04;6.23;88.14
69436;SHT31;56625;54.322;18.582;2024-02-28T12:51:37;6.21;88.11
69436;SHT31;56625;54.322;18.582;2024-02-28T12:54:09;6.21;88.15
69436;SHT31;56625;54.322;18.582;2024-02-28T12:56:39;6.22;88.20
69436;SHT31;56625;54.322;18.582;2024-02-28T12:59:11;6.25;88.27
69436;SHT31;56625;54.322;18.582;2024-02-28T13:01:41;6.26;88.11
69436;SHT31;56625;54.322;18.582;2024-02-28T13:04:09;6.27;88.17
69436;SHT31;56625;54.322;18.582;2024-02-28T13:06:38;6.34;88.33
69436;SHT31;56625;54.322;18.582;2024-02-28T13:09:07;6.40;88.33
69436;SHT31;56625;54.322;18.582;2024-02-28T13:11:40;6.36;87.95
69436;SHT31;56625;54.322;18.582;2024-02-28T13:14:09;6.25;87.77
69436;SHT31;56625;54.322;18.582;2024-02-28T13:16:38;6.12;87.76
69436;SHT31;56625;54.322;18.582;2024-02-28T13:19:06;6.01;87.90
69436;SHT31;56625;54.322;18.582;2024-02-28T13:21:35;5.95;88.13
69436;SHT31;56625;54.322;18.582;2024-02-28T13:24:03;5.88;88.28
69436;SHT31;56625;54.322;18.582;2024-02-28T13:26:32;5.91;88.93
69436;SHT31;56625;54.322;18.582;2024-02-28T13:28:59;6.29;91.07
69436;SHT31;56625;54.322;18.582;2024-02-28T13:31:27;6.72;91.41
69436;SHT31;56625;54.322;18.582;2024-02-28T13:33:56;6.66;88.84
69436;SHT31;56625;54.322;18.582;2024-02-28T13:36:24;6.51;87.96
69436;SHT31;56625;54.322;18.582;2024-02-28T13:38:52;6.37;87.70
69436;SHT31;56625;54.322;18.582;2024-02-28T13:41:20;6.23;87.41
69436;SHT31;56625;54.322;18.582;2024-02-28T13:43:48;6.12;87.58
69436;SHT31;56625;54.322;18.582;2024-02-28T13:46:16;6.04;87.67
69436;SHT31;56625;54.322;18.582;2024-02-28T13:48:47;5.96;87.71
69436;SHT31;56625;54.322;18.582;2024-02-28T13:51:15;5.89;87.73
69436;SHT31;56625;54.322;18.582;2024-02-28T13:53:44;5.85;87.89
69436;SHT31;56625;54.322;18.582;2024-02-28T13:56:12;5.82;88.02
69436;SHT31;56625;54.322;18.582;2024-02-28T13:58:40;5.80;88.08
69436;SHT31;56625;54.322;18.582;2024-02-28T14:01:19;5.77;88.10
69436;SHT31;56625;54.322;18.582;2024-02-28T14:03:48;5.76;88.25
69436;SHT31;56625;54.322;18.582;2024-02-28T14:06:17;5.75;88.30
69436;SHT31;56625;54.322;18.582;2024-02-28T14:08:45;5.73;88.30
69436;SHT31;56625;54.322;18.582;2024-02-28T14:11:13;5.72;88.32
69436;SHT31;56625;54.322;18.582;2024-02-28T14:13:44;5.71;88.40
69436;SHT31;56625;54.322;18.582;2024-02-28T14:16:12;5.69;88.42
69436;SHT31;56625;54.322;18.582;2024-02-28T14:18:40;5.66;88.45
69436;SHT31;56625;54.322;18.582;2024-02-28T14:21:08;5.66;88.56
69436;SHT31;56625;54.322;18.582;2024-02-28T14:23:38;5.64;88.57
69436;SHT31;56625;54.322;18.582;2024-02-28T14:26:06;5.57;88.41
69436;SHT31;56625;54.322;18.582;2024-02-28T14:28:34;5.49;88.45
69436;SHT31;56625;54.322;18.582;2024-02-28T14:31:02;5.45;88.66
69436;SHT31;56625;54.322;18.582;2024-02-28T14:33:31;5.43;88.78
69436;SHT31;56625;54.322;18.582;2024-02-28T14:36:00;5.43;88.90
69436;SHT31;56625;54.322;18.582;2024-02-28T14:38:28;5.42;88.91
69436;SHT31;56625;54.322;18.582;2024-02-28T14:40:56;5.38;88.87
69436;SHT31;56625;54.322;18.582;2024-02-28T14:43:25;5.34;88.96
69436;SHT31;56625;54.322;18.582;2024-02-28T14:45:56;5.32;89.05
69436;SHT31;56625;54.322;18.582;2024-02-28T14:48:26;5.31;89.10
69436;SHT31;56625;54.322;18.582;2024-02-28T14:50:55;5.28;89.16
69436;SHT31;56625;54.322;18.582;2024-02-28T14:53:23;5.27;89.26
69436;SHT31;56625;54.322;18.582;2024-02-28T14:55:52;5.26;89.34
69436;SHT31;56625;54.322;18.582;2024-02-28T14:58:20;5.26;89.40
69436;SHT31;56625;54.322;18.582;2024-02-28T15:00:49;5.24;89.40
69436;SHT31;56625;54.322;18.582;2024-02-28T15:03:17;5.31;90.08
69436;SHT31;56625;54.322;18.582;2024-02-28T15:05:46;5.62;91.32
69436;SHT31;56625;54.322;18.582;2024-02-28T15:08:16;5.91;91.29
69436;SHT31;56625;54.322;18.582;2024-02-28T15:10:44;5.82;89.52
69436;SHT31;56625;54.322;18.582;2024-02-28T15:13:12;5.70;88.86
69436;SHT31;56625;54.322;18.582;2024-02-28T15:15:40;5.59;88.76
69436;SHT31;56625;54.322;18.582;2024-02-28T15:18:09;5.49;88.73
69436;SHT31;56625;54.322;18.582;2024-02-28T15:20:38;5.44;88.89
69436;SHT31;56625;54.322;18.582;2024-02-28T15:23:06;5.37;88.90
69436;SHT31;56625;54.322;18.582;2024-02-28T15:25:35;5.31;88.97
69436;SHT31;56625;54.322;18.582;2024-02-28T15:28:04;5.29;89.13
69436;SHT31;56625;54.322;18.582;2024-02-28T15:30:33;5.26;89.20
69436;SHT31;56625;54.322;18.582;2024-02-28T15:33:02;5.21;89.22
69436;SHT31;56625;54.322;18.582;2024-02-28T15:35:31;5.18;89.31
69436;SHT31;56625;54.322;18.582;2024-02-28T15:38:00;5.16;89.41
69436;SHT31;56625;54.322;18.582;2024-02-28T15:40:28;5.14;89.49
69436;SHT31;56625;54.322;18.582;2024-02-28T15:42:56;5.13;89.60